Delta Virtual Airport Information Service

New York LaGuardia Airport

ICAO: KLGA Country: United States
Latitude: 40.7772 Longitude: -73.8726
Latest Arrival : DALJUMP (RKSI-KLGA) Latest Departure : DALJUMP (KLGA-KJFK)


WX CaptureLIVE
Data provided by noaa.gov | Fetched at 10:02:45

METAR : KLGA 151351Z 32005KT 10SM FEW041 FEW100 23/16 A2974 RMK AO2 SLP072 T02280161

TAF : KLGA 151410Z 1514/1618 32007KT P6SM SCT015 BKN100 FM151600 30008KT P6SM VCSH BKN050 FM152000 31010G17KT P6SM VCSH BKN060 FM152300 32011G18KT P6SM SCT060 FM160500 33010KT P6SM SKC FM161400 32015KT P6SM SKC


Runway Data for KLGA
Data provided by openaviationdata.com

Runway ID Mag Var Hdg Length Elevation Surface ILS Freq ILS Id ILS Slope
4 -13 45° 7000 ft 22 ft Asphalt 110.5 ILGA 3
13 -13 135° 6994 ft 22 ft Asphalt 108.5 IGDI 3
22 -13 225° 7000 ft 22 ft Asphalt 110.5 IURD 3
31 -13 315° 6994 ft 22 ft Asphalt 108.5 IPZV 0

New York LaGuardia Airport, United States
Use only for reference purposes



Not for navigational purposes.